YSRI Airport Information

Runway Information
Runway 10 Length 7001 ft width 148 ft
Elevation 66 ft Threshold ft Heading 107
Runway 28 Length 7001 ft Width 148 ft
Elevation 53 ft Threshold ft Heading 287
Airport Frequencies
Type ACP Name RICCOM COM Frequency 26.17 MHZ
Type APP Name SYDNEY APP Frequency 135.9 MHZ
Type ATIS Name ATIS Frequency 34.7 MHZ
Type CTAF Name CTAF Frequency 135.5 MHZ
Type FSS Name SYDNEY RAD Frequency 124.55 MHZ
Type GCA Name AMC OPS Frequency 34.94 MHZ
Type SFA Name AOCS HF NE Frequency 897.4 MHZ
Type SMC Name SMC Frequency 128.25 MHZ
Type SMCV Name SMCV Frequency 121.65 MHZ
Type TWR Name TWR Frequency 135.5 MHZ
Airport Navaids
Type TACAN Name Richmond Frequency 110700 KHZ
Type NDB Name Richmond Frequency 347 KHZ
Airport Weather Information & NOTAM
ADDS - METARS form results

(0121 UTC 29 June 2022)
Data provider http://aviationweather.gov/metar/data/
 
METAR text: YSRI 290100Z AUTO 07004KT 9999 // NCD 13/12 Q1026 RF00.0/000.0
Conditions at: YSRI (RICHMOND (AUS-AF, AU) observed 0100 UTC 29 June 2022
Temperature: 13.0°C (55°F)
Dewpoint: 12.0°C (54°F) [RH = 94%]
Pressure (altimeter): 30.30 inches Hg (1026.0 mb)
Winds: from the ENE (70 degrees) at 5 MPH (4 knots; 2.1 m/s)
Visibility: 6 or more miles (10+ km)
Ceiling: at least 12,000 feet AGL
Clouds: sky clear below 12,000 feet AGL
Weather: no significant weather observed at this time

METAR text: YSRI 290030Z AUTO 07004KT 9999 // NCD 10/10 Q1027 RF00.0/000.0
Conditions at: YSRI (RICHMOND (AUS-AF, AU) observed 0030 UTC 29 June 2022
Temperature: 10.0°C (50°F)
Dewpoint: 10.0°C (50°F) [RH = 100%]
Pressure (altimeter): 30.32 inches Hg (1027.0 mb)
Winds: from the ENE (70 degrees) at 5 MPH (4 knots; 2.1 m/s)
Visibility: 6 or more miles (10+ km)
Ceiling: at least 12,000 feet AGL
Clouds: sky clear below 12,000 feet AGL
Weather: no significant weather observed at this time

Forecast for: YSRI (RICHMOND (AUS-AF, AU)
Text: TAF YSRI 282307Z 2900/3000 VRB03KT 9999 FEW040
Forecast period: 0000 to 0200 UTC 29 June 2022
Forecast type: FROM: standard forecast or significant change
Winds: variable direction winds at 3 MPH (3 knots; 1.5 m/s)
Visibility: 6 or more miles (10+ km)
Ceiling: at least 12,000 feet AGL
Clouds: few clouds at 4000 feet AGL
Weather: no significant weather forecast for this period
Text: FM290200 35008KT 9999 FEW040
Forecast period: 0200 to 0700 UTC 29 June 2022
Forecast type: FROM: standard forecast or significant change
Winds: from the N (350 degrees) at 9 MPH (8 knots; 4.1 m/s)
Visibility: 6 or more miles (10+ km)
Ceiling: at least 12,000 feet AGL
Clouds: few clouds at 4000 feet AGL
Weather: no significant weather forecast for this period
Text: FM290700 VRB03KT CAVOK
Forecast period: 0700 UTC 29 June 2022 to 0000 UTC 30 June 2022
Forecast type: FROM: standard forecast or significant change
Winds: variable direction winds at 3 MPH (3 knots; 1.5 m/s)
Visibility: 6 or more miles (10+ km)
Ceiling: unknown
Clouds: missing
Weather: NSW  (no significant weather)